General Aviation Weather

Text Reports

Enter one or more of the following location identifiers separated by a space:

Zip Code, Four-Character ICAO or Three-Character IATA airport codes.

METAR - Aviation Routine Weather Report
PAEM - Emmonak, Alaska
Updated at 8:36 AM GMT on November 29, 2014 (11:36 PM AKST):
METAR PAEM 290836Z AUTO 15013KT 10SM OVC004 M02/M05 A3001 RMK AO1
TAF - Terminal Area Forecast
PAEM - Emmonak, Alaska
Updated at 8:36 AM GMT on November 29, 2014 (11:36 PM AKST):
No TAF is currently available for this location.
Decoded:
No decoded TAF is available.
PIREP - Pilot Weather Report
PAEM - Emmonak, Alaska
Updated at 8:36 AM GMT on November 29, 2014 (11:36 PM AKST):
No PIREP is currently available for this location.
AIRMET - Airmens Meteorological Information
PAEM - Emmonak, Alaska
Updated at 8:36 AM GMT on November 29, 2014 (11:36 PM AKST):
No AIRMET is currently available for this location.
SIGMET - Significant Meteorological Information
PAEM - Emmonak, Alaska
Updated at 8:36 AM GMT on November 29, 2014 (11:36 PM AKST):
No SIGMET is currently available for this location.
NOTAM - Notice to Airmen
PAEM - Emmonak, Alaska
Updated at 8:36 AM GMT on November 29, 2014 (11:36 PM AKST):
No NOTAM is currently available for this location.
Forecast Area
PAEM - Emmonak, Alaska
Updated at 8:36 AM GMT on November 29, 2014 (11:36 PM AKST):
No NOTAM is currently available for this location.
Aviation Weather Maps